Time;durP1;ratioP1;P1;durP2;ratioP2;P2;SDS_P1;SDS_P2;PMS_P1;PMS_P2;Temp;Humidity;BMP_temperature;BMP_pressure;BME280_temperature;BME280_humidity;BME280_pressure;Samples;Min_cycle;Max_cycle;Signal;HPM_P1;HPM_P2
2023/02/07 00:00:20;;;;;;;49.35;16.30;;;;;;;1.68;94.22;103441.16;5072747;28;20045;-51
2023/02/07 00:02:48;;;;;;;53.35;17.00;;;;;;;1.67;93.63;103441.19;5073473;28;20049;-52
2023/02/07 00:05:15;;;;;;;43.50;15.82;;;;;;;1.68;94.16;103445.56;5073650;28;20402;-53
2023/02/07 00:07:42;;;;;;;48.63;16.80;;;;;;;1.64;93.52;103444.75;5073310;28;20433;-53
2023/02/07 00:10:09;;;;;;;49.75;16.55;;;;;;;1.64;92.99;103444.75;5073509;28;20044;-53
2023/02/07 00:12:36;;;;;;;49.58;16.02;;;;;;;1.55;93.47;103450.16;5073519;28;20037;-54
2023/02/07 00:15:03;;;;;;;52.47;17.92;;;;;;;1.57;93.46;103447.53;5073415;28;20067;-53
2023/02/07 00:17:30;;;;;;;43.47;16.40;;;;;;;1.51;93.92;103459.81;5073209;28;20513;-53
2023/02/07 00:19:57;;;;;;;39.65;15.60;;;;;;;1.45;93.65;103451.22;5073495;28;20041;-54
2023/02/07 00:22:24;;;;;;;41.63;15.93;;;;;;;1.47;93.74;103459.91;5073208;28;20482;-54
2023/02/07 00:24:50;;;;;;;48.08;15.93;;;;;;;1.43;93.22;103453.84;5073158;28;20429;-53
2023/02/07 00:27:17;;;;;;;41.90;14.85;;;;;;;1.48;93.06;103451.16;5073275;28;20036;-53
2023/02/07 00:29:44;;;;;;;54.85;15.93;;;;;;;1.51;92.99;103461.56;5073538;28;20040;-53
2023/02/07 00:32:11;;;;;;;37.42;14.20;;;;;;;1.44;93.00;103460.81;5071828;28;20076;-54
2023/02/07 00:34:37;;;;;;;38.33;14.05;;;;;;;1.47;92.76;103462.50;5073428;28;20076;-54
2023/02/07 00:37:05;;;;;;;40.38;13.68;;;;;;;1.36;91.75;103443.53;5072954;28;20068;-54
2023/02/07 00:39:32;;;;;;;45.85;15.02;;;;;;;1.42;92.10;103443.41;5073378;28;20445;-54
2023/02/07 00:41:59;;;;;;;40.50;13.45;;;;;;;1.38;92.09;103444.38;5073240;28;20106;-53
2023/02/07 00:44:26;;;;;;;42.03;13.35;;;;;;;1.36;91.62;103439.16;5072044;28;20553;-53
2023/02/07 00:46:53;;;;;;;37.85;13.57;;;;;;;1.31;91.05;103443.59;5071240;28;20053;-53
2023/02/07 00:49:20;;;;;;;36.97;12.85;;;;;;;1.34;90.37;103441.81;5075505;28;20059;-54
2023/02/07 00:51:46;;;;;;;44.90;12.88;;;;;;;1.35;89.78;103447.91;5077073;28;20048;-53
2023/02/07 00:54:13;;;;;;;36.78;12.25;;;;;;;1.34;89.65;103439.19;5077174;28;20045;-51
2023/02/07 00:56:40;;;;;;;29.92;11.30;;;;;;;1.32;88.64;103442.72;5077005;28;20058;-53
2023/02/07 00:59:07;;;;;;;33.05;11.23;;;;;;;1.17;87.58;103448.25;5076477;28;20056;-53
2023/02/07 01:01:34;;;;;;;29.17;10.50;;;;;;;1.17;86.66;103458.72;5076691;28;20102;-53
2023/02/07 01:04:01;;;;;;;30.83;11.05;;;;;;;1.15;86.14;103448.28;5076940;28;20106;-54
2023/02/07 01:06:32;;;;;;;28.80;10.50;;;;;;;1.24;87.01;103453.34;5076738;28;20044;-51
2023/02/07 01:09:00;;;;;;;33.92;10.60;;;;;;;1.13;87.17;103452.66;5076902;28;20052;-53
2023/02/07 01:11:28;;;;;;;34.65;11.30;;;;;;;1.11;86.88;103457.03;5076884;28;20041;-53
2023/02/07 01:13:55;;;;;;;26.83;9.82;;;;;;;1.10;86.71;103455.31;5076661;28;20143;-53
2023/02/07 01:16:26;;;;;;;24.98;9.43;;;;;;;1.00;86.82;103454.63;5076638;28;20048;-52
2023/02/07 01:18:53;;;;;;;24.38;9.70;;;;;;;1.02;85.79;103467.66;5076618;28;20166;-52
2023/02/07 01:21:23;;;;;;;22.88;9.65;;;;;;;0.99;85.87;103467.72;5076477;28;20076;-53
2023/02/07 01:23:50;;;;;;;27.70;10.00;;;;;;;1.06;85.70;103464.13;5076644;28;20513;-54
2023/02/07 01:26:17;;;;;;;28.13;10.15;;;;;;;1.05;86.16;103471.06;5076202;28;20048;-53
2023/02/07 01:28:44;;;;;;;26.13;9.48;;;;;;;0.92;85.54;103461.72;5076211;28;20488;-54
2023/02/07 01:31:12;;;;;;;23.40;8.90;;;;;;;0.92;85.33;103461.72;5076419;28;20040;-52
2023/02/07 01:33:39;;;;;;;24.25;8.82;;;;;;;0.97;84.70;103461.66;5076285;28;20048;-54
2023/02/07 01:36:08;;;;;;;22.90;9.40;;;;;;;0.86;85.21;103470.53;5076421;28;20052;-53
2023/02/07 01:38:35;;;;;;;22.90;9.23;;;;;;;0.95;84.16;103473.00;5075034;28;20147;-51
2023/02/07 01:41:02;;;;;;;31.10;9.63;;;;;;;1.05;84.97;103459.75;5076234;28;20052;-53
2023/02/07 01:43:29;;;;;;;29.08;9.32;;;;;;;1.01;84.27;103460.72;5076079;28;20048;-52
2023/02/07 01:45:55;;;;;;;23.98;8.98;;;;;;;0.94;84.99;103462.56;5076181;28;20044;-56
2023/02/07 01:48:28;;;;;;;26.83;9.50;;;;;;;0.83;85.10;103448.81;5075948;28;20040;-52
2023/02/07 01:51:02;;;;;;;29.58;10.07;;;;;;;0.77;86.19;103455.00;5076102;28;20045;-53
2023/02/07 01:53:33;;;;;;;24.85;9.98;;;;;;;0.73;85.70;103456.78;5076025;28;20056;-53
2023/02/07 01:56:05;;;;;;;24.77;9.25;;;;;;;0.81;85.19;103443.59;5075762;28;20440;-52
2023/02/07 01:58:33;;;;;;;20.38;9.18;;;;;;;0.81;85.46;103448.81;5075287;28;20044;-54
2023/02/07 02:01:08;;;;;;;24.65;9.07;;;;;;;0.73;85.70;103462.00;5075097;28;20049;-53
2023/02/07 02:03:40;;;;;;;25.55;9.60;;;;;;;0.68;86.09;103462.97;5075658;28;20428;-52
2023/02/07 02:06:08;;;;;;;23.15;9.50;;;;;;;0.61;86.04;103453.50;5075812;28;20052;-52
2023/02/07 02:08:35;;;;;;;24.45;9.38;;;;;;;0.66;86.22;103460.38;5075545;28;20090;-53
2023/02/07 02:11:17;;;;;;;31.05;10.60;;;;;;;0.60;86.37;103460.50;5075542;28;20048;-53
2023/02/07 02:13:59;;;;;;;25.95;10.00;;;;;;;0.61;86.57;103458.72;5075647;28;20084;-53
2023/02/07 02:16:37;;;;;;;22.40;8.88;;;;;;;0.51;86.29;103448.41;5075190;28;20032;-53
2023/02/07 02:19:40;;;;;;;23.40;9.15;;;;;;;0.45;86.16;103458.94;5075683;28;20036;-51
2023/02/07 02:22:35;;;;;;;23.73;8.98;;;;;;;0.52;86.57;103449.28;5074921;28;20040;-51
2023/02/07 02:25:41;;;;;;;22.67;9.40;;;;;;;0.51;86.04;103455.38;5075236;28;20060;-53
2023/02/07 02:28:41;;;;;;;23.88;9.32;;;;;;;0.48;86.03;103460.66;5074775;28;20068;-52
2023/02/07 02:31:48;;;;;;;22.98;8.93;;;;;;;0.45;86.28;103452.84;5075356;28;20052;-54
2023/02/07 02:34:30;;;;;;;26.80;9.88;;;;;;;0.38;86.33;103458.19;5074942;28;20048;-52
2023/02/07 02:37:09;;;;;;;23.95;9.65;;;;;;;0.42;86.39;103466.84;5075078;28;20045;-53
2023/02/07 02:39:50;;;;;;;26.45;9.40;;;;;;;0.37;86.50;103461.66;5075191;28;20090;-54
2023/02/07 02:42:25;;;;;;;27.20;10.27;;;;;;;0.36;86.74;103464.28;5074942;28;20075;-53
2023/02/07 02:45:01;;;;;;;25.55;9.63;;;;;;;0.35;86.79;103459.97;5075091;28;20045;-53
2023/02/07 02:47:30;;;;;;;23.55;10.02;;;;;;;0.38;86.68;103455.56;5072555;28;20036;-53
2023/02/07 02:49:58;;;;;;;21.38;9.70;;;;;;;0.29;86.86;103458.31;5080070;28;20061;-54
2023/02/07 02:52:27;;;;;;;32.20;9.82;;;;;;;0.31;87.20;103468.72;5073974;28;20131;-54
2023/02/07 02:55:10;;;;;;;25.52;9.75;;;;;;;0.24;86.86;103465.34;5074189;28;20072;-53
2023/02/07 02:58:07;;;;;;;25.50;9.40;;;;;;;0.28;86.77;103464.41;5074604;28;20547;-53
2023/02/07 03:01:02;;;;;;;25.48;9.90;;;;;;;0.18;87.25;103463.66;5073495;28;20482;-54
2023/02/07 03:03:58;;;;;;;22.20;9.40;;;;;;;0.24;87.23;103456.63;5074180;28;20040;-53
2023/02/07 03:06:36;;;;;;;25.33;9.82;;;;;;;0.24;87.25;103456.63;5074459;28;20521;-52
2023/02/07 03:09:29;;;;;;;19.80;8.75;;;;;;;0.25;86.97;103455.75;5073639;28;20115;-53
2023/02/07 03:12:04;;;;;;;21.67;9.23;;;;;;;0.22;87.17;103456.66;5074461;28;20055;-53
2023/02/07 03:14:54;;;;;;;26.77;10.02;;;;;;;0.19;87.35;103448.88;5074526;28;20044;-54
2023/02/07 03:17:31;;;;;;;22.80;8.60;;;;;;;0.17;86.96;103435.81;5074499;28;20041;-52
2023/02/07 03:20:22;;;;;;;25.02;8.82;;;;;;;0.23;87.10;103439.25;5074334;28;20049;-54
2023/02/07 03:22:52;;;;;;;25.88;9.88;;;;;;;0.20;87.31;103434.94;5073858;28;20048;-54
2023/02/07 03:25:21;;;;;;;23.77;8.85;;;;;;;0.18;86.77;103426.22;5073823;28;20460;-54
2023/02/07 03:27:51;;;;;;;21.42;9.10;;;;;;;0.18;86.77;103427.13;5074150;28;20049;-52
2023/02/07 03:30:20;;;;;;;26.15;9.20;;;;;;;0.20;86.78;103427.09;5073984;28;20052;-54
2023/02/07 03:32:50;;;;;;;23.70;8.77;;;;;;;0.17;86.90;103419.31;5074158;28;20052;-54
2023/02/07 03:35:24;;;;;;;21.85;8.75;;;;;;;0.15;86.81;103415.84;5074159;28;20049;-53
2023/02/07 03:37:56;;;;;;;23.30;9.07;;;;;;;0.12;86.95;103426.31;5073878;28;20052;-53
2023/02/07 03:40:27;;;;;;;20.35;8.25;;;;;;;0.14;86.86;103432.38;5073856;28;20445;-53
2023/02/07 03:43:03;;;;;;;22.13;8.85;;;;;;;0.06;86.82;103437.72;5074112;28;20041;-54
2023/02/07 03:45:29;;;;;;;21.45;9.10;;;;;;;0.04;86.90;103433.38;5073855;28;20053;-52
2023/02/07 03:47:56;;;;;;;26.67;8.90;;;;;;;0.07;86.77;103439.44;5073732;28;20447;-51
2023/02/07 03:50:23;;;;;;;22.60;8.80;;;;;;;-0.01;86.39;103441.28;5073775;28;20044;-53
2023/02/07 03:52:51;;;;;;;20.48;8.85;;;;;;;0.07;86.88;103447.25;5073628;28;20049;-51
2023/02/07 03:55:17;;;;;;;22.83;8.20;;;;;;;0.01;86.25;103443.88;5073396;28;20040;-53
2023/02/07 03:57:44;;;;;;;22.10;8.95;;;;;;;0.03;86.44;103445.56;5073770;28;20500;-53
2023/02/07 04:00:12;;;;;;;18.17;8.02;;;;;;;0.05;85.83;103435.13;5072655;28;20056;-52
2023/02/07 04:02:42;;;;;;;16.83;7.82;;;;;;;0.04;85.95;103436.88;5053720;28;20094;-54
2023/02/07 04:05:09;;;;;;;20.83;8.57;;;;;;;0.05;85.31;103438.59;5053690;28;20048;-54
2023/02/07 04:07:36;;;;;;;18.45;8.10;;;;;;;-0.02;85.54;103437.81;5053412;28;20460;-53
2023/02/07 04:10:05;;;;;;;23.88;8.10;;;;;;;0.04;85.20;103436.00;5053457;28;20080;-52
2023/02/07 04:12:31;;;;;;;17.50;7.57;;;;;;;-0.01;85.46;103442.16;5053436;28;20073;-53
2023/02/07 04:14:59;;;;;;;18.05;7.75;;;;;;;-0.01;85.28;103444.75;5053321;28;20041;-54
2023/02/07 04:17:26;;;;;;;19.13;8.65;;;;;;;0.03;85.16;103436.91;5053481;28;20064;-53
2023/02/07 04:19:55;;;;;;;18.60;8.10;;;;;;;0.00;86.09;103435.19;5061235;28;20072;-52
2023/02/07 04:22:22;;;;;;;24.98;8.63;;;;;;;0.01;85.74;103425.63;5073034;28;20127;-54
2023/02/07 04:24:49;;;;;;;20.13;8.35;;;;;;;0.03;85.71;103423.84;5073098;28;20139;-53
2023/02/07 04:27:15;;;;;;;19.67;8.35;;;;;;;-0.05;85.56;103419.59;5073366;28;20075;-53
2023/02/07 04:29:42;;;;;;;18.15;8.65;;;;;;;0.02;85.30;103416.88;5073378;28;20046;-54
2023/02/07 04:32:08;;;;;;;17.30;7.82;;;;;;;0.02;85.42;103427.31;5072980;28;20441;-53
2023/02/07 04:34:35;;;;;;;19.63;7.80;;;;;;;0.09;84.90;103427.25;5073436;28;20071;-53
2023/02/07 04:37:02;;;;;;;19.73;7.68;;;;;;;0.04;84.25;103421.22;5073059;28;20044;-53
2023/02/07 04:39:29;;;;;;;17.13;7.75;;;;;;;0.08;84.36;103422.03;5073304;28;20109;-51
2023/02/07 04:41:55;;;;;;;17.52;7.60;;;;;;;0.04;83.96;103417.72;5073407;28;20153;-53
2023/02/07 04:44:22;;;;;;;17.75;7.47;;;;;;;0.07;84.46;103420.31;5073058;28;20139;-54
2023/02/07 04:46:49;;;;;;;20.52;7.68;;;;;;;-0.04;84.36;103410.88;5073194;28;20072;-54
2023/02/07 04:49:15;;;;;;;21.58;8.05;;;;;;;-0.03;84.32;103396.94;5068728;28;20124;-53
2023/02/07 04:51:42;;;;;;;18.23;7.90;;;;;;;-0.07;84.11;103410.06;5071563;28;20405;-53
2023/02/07 04:54:10;;;;;;;20.92;7.40;;;;;;;-0.09;84.34;103406.56;5072020;28;20041;-53
2023/02/07 04:56:36;;;;;;;17.95;7.65;;;;;;;-0.30;84.12;103405.97;5072640;28;20075;-53
2023/02/07 04:59:03;;;;;;;23.05;7.82;;;;;;;-0.21;84.35;103410.22;5072532;28;20041;-53
2023/02/07 05:01:30;;;;;;;20.08;7.50;;;;;;;-0.18;84.16;103417.13;5071313;28;20075;-54
2023/02/07 05:03:57;;;;;;;16.85;6.78;;;;;;;-0.22;83.77;103416.31;5072840;28;20072;-54
2023/02/07 05:06:23;;;;;;;17.17;7.57;;;;;;;-0.15;83.77;103419.72;5072839;28;20512;-53
2023/02/07 05:08:51;;;;;;;21.58;8.05;;;;;;;-0.19;84.00;103416.28;5072612;28;20288;-53
2023/02/07 05:11:18;;;;;;;20.65;8.20;;;;;;;-0.12;83.68;103410.09;5073032;28;20578;-53
2023/02/07 05:13:45;;;;;;;19.88;7.63;;;;;;;-0.17;83.79;103414.50;5072811;28;20053;-53
2023/02/07 05:16:12;;;;;;;18.63;7.47;;;;;;;-0.11;83.95;103414.47;5088139;28;20078;-52
2023/02/07 05:18:39;;;;;;;25.15;8.40;;;;;;;-0.15;83.84;103415.34;5072702;28;20071;-54
2023/02/07 05:21:06;;;;;;;18.75;7.68;;;;;;;-0.21;83.60;103405.88;5072629;28;20131;-54
2023/02/07 05:23:32;;;;;;;22.30;8.05;;;;;;;-0.29;83.52;103412.94;5072703;28;20410;-54
2023/02/07 05:25:59;;;;;;;21.27;8.55;;;;;;;-0.22;83.45;103405.88;5072450;28;20131;-53
2023/02/07 05:28:25;;;;;;;21.50;7.82;;;;;;;-0.33;83.91;103399.94;5072610;28;20041;-54
2023/02/07 05:30:54;;;;;;;17.25;7.35;;;;;;;-0.31;83.87;103399.06;5072772;28;20080;-54
2023/02/07 05:33:21;;;;;;;18.00;7.65;;;;;;;-0.26;83.68;103405.03;5074421;28;20445;-53
2023/02/07 05:35:48;;;;;;;20.45;7.93;;;;;;;-0.29;83.14;103389.44;5074803;28;20090;-53
2023/02/07 05:38:17;;;;;;;21.10;8.38;;;;;;;-0.41;83.98;103398.28;5076062;28;20051;-53
2023/02/07 05:40:44;;;;;;;19.05;7.75;;;;;;;-0.45;84.04;103390.53;5076079;28;20044;-52
2023/02/07 05:43:12;;;;;;;16.90;7.10;;;;;;;-0.39;83.53;103401.72;5076320;28;20490;-53
2023/02/07 05:45:39;;;;;;;19.30;7.57;;;;;;;-0.37;83.45;103399.09;5075918;28;20485;-53
2023/02/07 05:48:07;;;;;;;21.77;8.07;;;;;;;-0.41;83.60;103398.28;5075990;28;20490;-52
2023/02/07 05:50:34;;;;;;;22.50;8.75;;;;;;;-0.34;83.87;103413.88;5075935;28;20049;-53
2023/02/07 05:53:06;;;;;;;18.75;8.07;;;;;;;-0.41;84.11;103405.25;5075749;28;20059;-55
2023/02/07 05:55:33;;;;;;;20.98;7.22;;;;;;;-0.40;84.08;103405.22;5075904;28;20374;-53
2023/02/07 05:58:00;;;;;;;19.27;8.07;;;;;;;-0.29;83.46;103412.03;5075959;28;20113;-53
2023/02/07 06:00:27;;;;;;;20.00;8.40;;;;;;;-0.27;82.80;103416.38;5074917;28;20463;-53
2023/02/07 06:02:53;;;;;;;22.40;7.93;;;;;;;-0.25;83.16;103416.38;5075727;28;20044;-53
2023/02/07 06:05:21;;;;;;;22.10;8.43;;;;;;;-0.26;82.97;103414.63;5075737;28;20060;-54
2023/02/07 06:07:50;;;;;;;20.80;8.00;;;;;;;-0.18;83.07;103430.19;5075576;28;20044;-53
2023/02/07 06:10:17;;;;;;;22.63;9.40;;;;;;;-0.26;82.95;103436.34;5074433;28;20227;-54
2023/02/07 06:12:43;;;;;;;20.17;8.30;;;;;;;-0.32;82.69;103430.38;5075458;28;20059;-54
2023/02/07 06:15:10;;;;;;;20.67;7.95;;;;;;;-0.82;84.31;103422.19;5075723;28;20051;-52
2023/02/07 06:17:37;;;;;;;21.45;8.60;;;;;;;-0.67;84.77;103424.66;5075403;28;20044;-54
2023/02/07 06:20:04;;;;;;;25.63;8.48;;;;;;;-0.54;84.01;103435.81;5075082;28;20406;-52
2023/02/07 06:22:31;;;;;;;24.17;10.05;;;;;;;-0.40;83.91;103433.03;5075040;28;20045;-53
2023/02/07 06:24:58;;;;;;;30.23;10.80;;;;;;;-0.28;83.81;103434.66;5075167;28;20490;-53
2023/02/07 06:27:24;;;;;;;25.75;9.85;;;;;;;-0.35;83.45;103438.22;5075455;28;20080;-53
2023/02/07 06:29:51;;;;;;;25.25;9.02;;;;;;;-0.30;83.42;103444.25;5075116;28;20040;-53
2023/02/07 06:32:17;;;;;;;30.55;8.70;;;;;;;-0.26;83.48;103438.97;5075231;28;20052;-53
2023/02/07 06:34:44;;;;;;;33.97;9.88;;;;;;;-0.29;83.68;103440.75;5074822;28;20458;-53
2023/02/07 06:37:11;;;;;;;25.85;10.20;;;;;;;-0.44;83.38;103447.88;5074946;28;20454;-53
2023/02/07 06:39:38;;;;;;;24.10;8.82;;;;;;;-0.31;83.28;103452.94;5074898;28;20512;-51
2023/02/07 06:42:05;;;;;;;27.90;10.10;;;;;;;-0.26;83.63;103453.75;5074891;28;20167;-53
2023/02/07 06:44:32;;;;;;;22.63;9.25;;;;;;;-0.28;83.73;103459.00;5074715;28;20555;-53
2023/02/07 06:46:58;;;;;;;27.92;9.75;;;;;;;-0.27;83.69;103462.50;5074445;28;20048;-52
2023/02/07 06:49:25;;;;;;;26.65;9.48;;;;;;;-0.24;83.49;103467.66;5055714;28;20048;-53
2023/02/07 06:51:52;;;;;;;24.88;9.65;;;;;;;-0.26;83.82;103456.38;5045033;28;20218;-53
2023/02/07 06:54:18;;;;;;;22.25;8.85;;;;;;;-0.27;83.54;103467.72;5052972;28;20056;-53
2023/02/07 06:56:47;;;;;;;25.67;9.60;;;;;;;-0.18;83.40;103470.22;5053695;28;20053;-51
2023/02/07 06:59:13;;;;;;;29.85;9.13;;;;;;;-0.20;83.83;103472.84;5053955;28;20049;-53
2023/02/07 07:01:40;;;;;;;22.90;9.80;;;;;;;-0.09;83.48;103477.03;5065805;28;20182;-51
2023/02/07 07:04:07;;;;;;;22.45;9.40;;;;;;;-0.12;83.21;103474.50;5074371;28;20040;-51
2023/02/07 07:06:34;;;;;;;21.92;9.10;;;;;;;-0.05;82.94;103481.38;5066242;28;20032;-52
2023/02/07 07:09:02;;;;;;;25.30;9.50;;;;;;;-0.03;82.81;103477.00;5073866;28;20110;-51
2023/02/07 07:11:28;;;;;;;20.90;9.63;;;;;;;-0.09;83.05;103479.66;5074004;28;20051;-50
2023/02/07 07:13:55;;;;;;;23.15;9.38;;;;;;;-0.03;82.53;103490.03;5072976;28;20398;-53
2023/02/07 07:16:22;;;;;;;24.45;9.02;;;;;;;-0.04;82.18;103496.13;5074269;28;20048;-52
2023/02/07 07:18:48;;;;;;;26.10;8.65;;;;;;;0.04;82.72;103498.63;5074006;28;20041;-53
2023/02/07 07:21:15;;;;;;;26.88;9.02;;;;;;;0.00;82.44;103497.84;5089519;28;20429;-52
2023/02/07 07:23:42;;;;;;;21.63;8.98;;;;;;;-0.14;81.83;103499.75;5073596;28;20044;-53
2023/02/07 07:26:09;;;;;;;24.00;8.93;;;;;;;-0.08;82.50;103497.06;5073776;28;20102;-53
2023/02/07 07:28:36;;;;;;;24.83;9.45;;;;;;;-0.01;82.71;103496.09;5073936;28;20041;-53
2023/02/07 07:31:05;;;;;;;18.70;9.07;;;;;;;0.05;81.92;103503.84;5073871;28;20044;-54
2023/02/07 07:33:32;;;;;;;22.90;8.65;;;;;;;0.07;81.84;103511.66;5073857;28;20066;-53
2023/02/07 07:36:00;;;;;;;21.20;9.32;;;;;;;0.11;81.18;103510.72;5074107;28;20127;-54
2023/02/07 07:38:27;;;;;;;20.80;8.93;;;;;;;0.11;81.78;103509.00;5073670;28;20040;-54
2023/02/07 07:40:54;;;;;;;23.08;9.40;;;;;;;0.10;81.26;103515.09;5073895;28;20494;-53
2023/02/07 07:43:21;;;;;;;21.02;9.57;;;;;;;0.11;81.71;103516.84;5073469;28;20406;-54
2023/02/07 07:45:53;;;;;;;27.77;9.07;;;;;;;0.12;81.42;103515.09;5073683;28;20433;-51
2023/02/07 07:48:22;;;;;;;20.08;9.20;;;;;;;0.15;81.56;103526.34;5073104;28;20467;-53
2023/02/07 07:50:49;;;;;;;31.42;8.95;;;;;;;0.17;81.79;103529.81;5073638;28;20040;-53
2023/02/07 07:53:17;;;;;;;23.38;9.15;;;;;;;0.21;81.60;103533.25;5073524;28;20513;-53
2023/02/07 07:55:49;;;;;;;20.75;8.43;;;;;;;0.34;81.72;103545.25;5073373;28;20052;-54
2023/02/07 07:58:19;;;;;;;22.40;9.57;;;;;;;0.48;80.75;103533.78;5054549;28;20135;-52
2023/02/07 08:00:46;;;;;;;23.08;9.02;;;;;;;0.32;79.96;103530.50;5050174;28;20131;-54
2023/02/07 08:03:15;;;;;;;22.90;9.55;;;;;;;0.40;80.36;103538.25;5068218;28;20037;-54
2023/02/07 08:05:43;;;;;;;22.02;8.98;;;;;;;0.52;79.38;103541.56;5078448;28;20846;-54
2023/02/07 08:08:10;;;;;;;21.10;9.15;;;;;;;0.70;79.16;103539.59;5077137;28;20093;-54
2023/02/07 08:10:38;;;;;;;18.30;9.05;;;;;;;0.65;78.80;103537.03;5072045;28;20043;-54
2023/02/07 08:13:05;;;;;;;22.13;9.23;;;;;;;0.63;78.65;103533.56;5085235;28;20032;-54
2023/02/07 08:15:33;;;;;;;20.88;9.20;;;;;;;0.62;78.01;103529.25;5062270;28;20553;-54
2023/02/07 08:17:59;;;;;;;20.92;8.73;;;;;;;0.72;77.92;103525.59;5070251;28;20072;-55
2023/02/07 08:20:26;;;;;;;23.20;9.23;;;;;;;0.80;77.64;103524.63;5065000;28;20090;-55
2023/02/07 08:22:53;;;;;;;24.20;9.27;;;;;;;0.92;77.34;103538.38;5072181;28;20058;-55
2023/02/07 08:25:20;;;;;;;19.88;9.15;;;;;;;1.20;75.89;103537.97;5067745;28;20099;-55
2023/02/07 08:27:46;;;;;;;21.67;9.50;;;;;;;1.85;73.89;103532.44;5073695;28;20405;-55
2023/02/07 08:30:15;;;;;;;19.88;9.77;;;;;;;2.40;71.97;103538.34;5060035;28;20040;-54
2023/02/07 08:32:41;;;;;;;28.90;9.70;;;;;;;2.46;70.88;103534.75;5075811;28;20132;-54
2023/02/07 08:35:08;;;;;;;23.35;9.00;;;;;;;2.30;71.78;103531.56;5079433;28;20040;-52
2023/02/07 08:37:36;;;;;;;22.60;9.90;;;;;;;3.23;68.87;103533.81;5086274;28;20044;-54
2023/02/07 08:40:04;;;;;;;20.55;9.40;;;;;;;3.95;65.45;103527.59;5084177;28;20502;-54
2023/02/07 08:42:31;;;;;;;19.40;8.90;;;;;;;4.17;64.02;103531.31;5081428;28;20057;-53
2023/02/07 08:44:57;;;;;;;22.77;9.77;;;;;;;4.46;62.52;103531.34;5075269;28;20123;-54
2023/02/07 08:47:24;;;;;;;22.48;9.27;;;;;;;3.48;63.96;103537.59;5078162;28;20128;-54
2023/02/07 08:49:51;;;;;;;18.98;8.90;;;;;;;2.91;67.56;103531.09;5066490;28;20135;-52
2023/02/07 08:52:18;;;;;;;19.45;8.20;;;;;;;2.46;69.18;103532.13;5063804;28;20055;-53
2023/02/07 08:54:44;;;;;;;22.95;9.13;;;;;;;2.14;71.19;103530.16;5071076;28;20048;-51
2023/02/07 08:57:11;;;;;;;19.08;9.07;;;;;;;1.88;71.70;103532.41;5073807;28;20055;-52
2023/02/07 08:59:38;;;;;;;21.45;8.75;;;;;;;1.76;72.90;103531.78;5077547;28;20040;-54
2023/02/07 09:02:05;;;;;;;20.75;8.73;;;;;;;1.55;73.20;103531.28;5049276;28;20048;-53
2023/02/07 09:04:32;;;;;;;20.02;8.27;;;;;;;1.33;73.60;103533.41;5067286;28;20055;-52
2023/02/07 09:06:59;;;;;;;17.50;8.57;;;;;;;1.46;72.65;103528.81;5070015;28;20040;-52
2023/02/07 09:09:25;;;;;;;19.77;8.57;;;;;;;1.34;73.27;103529.88;5081002;28;20063;-51
2023/02/07 09:11:52;;;;;;;25.20;8.70;;;;;;;1.13;73.78;103531.97;5085137;28;20048;-55
2023/02/07 09:14:18;;;;;;;16.92;8.25;;;;;;;1.19;73.24;103538.84;5078995;28;20482;-51
2023/02/07 09:16:45;;;;;;;18.25;8.43;;;;;;;1.39;73.25;103528.06;5059054;28;20052;-55
2023/02/07 09:19:12;;;;;;;21.75;8.85;;;;;;;1.39;73.82;103528.06;5066614;28;20037;-55
2023/02/07 09:21:38;;;;;;;16.52;8.18;;;;;;;1.47;73.75;103515.69;5070884;28;20051;-53
2023/02/07 09:24:05;;;;;;;19.98;8.35;;;;;;;1.42;74.84;103520.16;5066192;28;20045;-53
2023/02/07 09:26:34;;;;;;;18.83;8.15;;;;;;;1.59;73.38;103525.09;5067238;28;20502;-51
2023/02/07 09:29:01;;;;;;;18.77;7.47;;;;;;;1.48;72.91;103529.66;5083661;28;20049;-53
2023/02/07 09:31:27;;;;;;;16.35;8.13;;;;;;;1.41;74.29;103523.66;5051887;28;20044;-52
2023/02/07 09:33:54;;;;;;;18.75;7.63;;;;;;;1.63;73.64;103524.13;5076821;28;20052;-52
2023/02/07 09:36:25;;;;;;;16.58;7.82;;;;;;;1.70;72.80;103509.19;5075440;28;20048;-53
2023/02/07 09:38:52;;;;;;;15.18;7.72;;;;;;;1.60;73.07;103510.25;5090352;28;20044;-53
2023/02/07 09:41:58;;;;;;;16.60;8.10;;;;;;;1.57;73.28;103513.78;5074373;28;20405;-55
2023/02/07 09:44:52;;;;;;;18.10;8.50;;;;;;;1.58;73.27;103514.66;5072881;28;20539;-54
2023/02/07 09:47:22;;;;;;;17.90;8.52;;;;;;;1.75;72.37;103516.94;5060739;28;20048;-54
2023/02/07 09:52:38;;;;;;;17.10;8.82;;;;;;;1.85;72.16;103513.28;5095290;27;20369;-55
2023/02/07 09:55:14;;;;;;;20.20;8.48;;;;;;;1.71;71.37;103521.38;5073183;28;20083;-53
2023/02/07 09:57:44;;;;;;;18.85;9.00;;;;;;;1.81;71.50;103514.22;5082136;28;20067;-53
2023/02/07 10:03:08;;;;;;;18.15;9.23;;;;;;;1.73;71.87;103520.47;5090160;27;1156360;-54
2023/02/07 10:05:44;;;;;;;26.58;9.30;;;;;;;1.66;71.48;103531.94;5135878;27;20039;-54
2023/02/07 10:08:14;;;;;;;17.10;8.55;;;;;;;1.66;73.12;103525.84;5139555;27;20039;-55
2023/02/07 10:10:45;;;;;;;21.58;9.05;;;;;;;1.78;71.71;103515.13;5140726;27;20050;-53
2023/02/07 10:13:42;;;;;;;19.70;9.77;;;;;;;1.85;71.51;103528.97;5131154;27;20043;-53
2023/02/07 10:16:22;;;;;;;22.75;9.10;;;;;;;1.82;72.20;103523.78;5125769;27;20042;-53
2023/02/07 10:18:59;;;;;;;19.02;9.00;;;;;;;1.91;71.91;103526.22;5129895;27;20404;-51
2023/02/07 10:21:53;;;;;;;20.52;8.60;;;;;;;1.73;71.36;103524.84;5128921;27;20039;-53
2023/02/07 10:24:40;;;;;;;19.23;9.07;;;;;;;1.88;71.86;103515.84;5140720;27;20405;-55
2023/02/07 10:27:11;;;;;;;17.38;8.68;;;;;;;2.00;72.28;103514.72;5130994;27;20054;-52
2023/02/07 10:30:03;;;;;;;18.15;8.82;;;;;;;2.20;71.95;103509.97;5134136;27;20374;-53
2023/02/07 10:32:34;;;;;;;16.65;8.32;;;;;;;2.28;69.46;103520.28;5119605;27;20036;-52
2023/02/07 10:35:14;;;;;;;16.87;9.23;;;;;;;2.44;66.82;103512.97;5130632;27;20038;-53
2023/02/07 10:37:45;;;;;;;18.52;8.45;;;;;;;2.52;67.30;103508.41;5131999;27;20054;-54
2023/02/07 10:40:21;;;;;;;17.42;8.60;;;;;;;2.58;68.04;103504.78;5140340;27;20047;-52
2023/02/07 10:42:58;;;;;;;16.75;8.50;;;;;;;2.60;66.89;103518.69;5126009;27;20703;-52
2023/02/07 10:45:25;;;;;;;16.20;8.05;;;;;;;2.60;65.99;103516.06;5145610;27;20061;-53
2023/02/07 10:47:51;;;;;;;17.48;8.23;;;;;;;2.78;65.56;103517.41;5122459;27;20124;-54
2023/02/07 10:50:23;;;;;;;17.58;8.57;;;;;;;2.80;66.09;103527.00;5155767;27;20049;-54
2023/02/07 10:52:57;;;;;;;17.80;7.88;;;;;;;3.00;64.64;103523.91;5131852;27;20046;-52
2023/02/07 10:55:43;;;;;;;16.65;8.43;;;;;;;3.09;63.89;103517.56;5132927;27;20069;-53
2023/02/07 10:58:15;;;;;;;17.27;7.82;;;;;;;3.10;61.78;103528.94;5123902;27;20032;-53
2023/02/07 11:00:52;;;;;;;16.00;7.90;;;;;;;3.09;61.38;103517.56;5133042;27;20214;-53
2023/02/07 11:03:23;;;;;;;18.65;7.80;;;;;;;3.20;61.18;103519.91;5115100;27;20039;-54
2023/02/07 11:08:31;;;;;;;15.65;7.45;;;;;;;3.34;60.48;103522.19;5103714;27;20894;-51
2023/02/07 11:11:16;;;;;;;19.30;7.47;;;;;;;3.75;60.50;103518.50;5080011;28;20044;-51
2023/02/07 11:13:47;;;;;;;17.92;8.27;;;;;;;4.62;57.03;103516.88;5091302;28;20048;-54
2023/02/07 11:16:17;;;;;;;15.63;8.10;;;;;;;7.33;50.16;103512.28;5093130;28;20128;-52
2023/02/07 11:18:54;;;;;;;17.45;7.95;;;;;;;11.09;40.80;103522.63;5076788;28;20525;-53
2023/02/07 11:21:27;;;;;;;14.98;7.75;;;;;;;13.43;36.54;103526.53;5086536;28;20359;-52
2023/02/07 11:23:58;;;;;;;14.40;7.90;;;;;;;15.00;32.46;103534.03;5095613;28;20078;-53
2023/02/07 11:26:25;;;;;;;15.50;7.72;;;;;;;16.73;29.78;103537.41;5091298;28;20052;-53
2023/02/07 11:29:00;;;;;;;15.40;9.20;;;;;;;16.11;29.16;103531.69;5101795;28;20044;-53
2023/02/07 11:31:30;;;;;;;16.58;9.65;;;;;;;17.39;27.31;103539.94;5080938;28;20037;-53
2023/02/07 11:34:23;;;;;;;24.52;11.32;;;;;;;17.38;26.73;103537.41;5075643;28;20055;-54
2023/02/07 11:36:50;;;;;;;24.35;12.25;;;;;;;18.65;24.42;103536.06;5076627;28;20044;-54
2023/02/07 11:39:20;;;;;;;24.20;11.98;;;;;;;19.06;24.33;103528.72;5106938;28;20052;-52
2023/02/07 11:41:59;;;;;;;19.90;11.00;;;;;;;18.98;23.79;103528.63;5094369;28;20040;-52
2023/02/07 11:44:28;;;;;;;18.58;8.93;;;;;;;18.76;23.70;103527.88;5106223;28;20044;-52